Time,TemperatureF,DewpointF,PressureIn,WindDirection,WindDirectionDegrees,WindSpeedMPH,WindSpeedGustMPH,Humidity,HourlyPrecipIn,Conditions,Clouds,dailyrainin,SoftwareType,DateUTC
2013-08-15 00:10:00,60.1,51.0,30.18,NE,40,0.0,0.0,72,0.00,CLR,CLR,0.00,WeatherDisplay:10.37,2013-08-15 05:10:00,
2013-08-15 00:40:00,57.9,51.8,30.18,NE,40,0.0,0.0,80,0.00,CLR,CLR,0.00,WeatherDisplay:10.37,2013-08-15 05:40:00,
2013-08-15 01:10:00,57.9,51.8,30.18,NE,40,0.0,0.0,80,0.00,CLR,CLR,0.00,WeatherDisplay:10.37,2013-08-15 06:10:00,
2013-08-15 01:40:00,55.9,51.8,30.18,NE,40,0.0,0.0,86,0.00,CLR,CLR,0.00,WeatherDisplay:10.37,2013-08-15 06:40:00,
2013-08-15 02:10:00,55.9,51.8,30.18,NE,40,0.0,0.0,86,0.00,CLR,CLR,0.00,WeatherDisplay:10.37,2013-08-15 07:10:00,
2013-08-15 02:40:00,57.0,51.9,30.17,NE,40,0.0,0.0,83,0.00,CLR,CLR,0.00,WeatherDisplay:10.37,2013-08-15 07:40:00,
2013-08-15 03:10:00,57.0,51.9,30.17,NE,40,0.0,0.0,83,0.00,CLR,CLR,0.00,WeatherDisplay:10.37,2013-08-15 08:10:00,
2013-08-15 03:40:00,57.0,51.9,30.17,NE,40,0.0,0.0,83,0.00,CLR,CLR,0.00,WeatherDisplay:10.37,2013-08-15 08:40:00,
2013-08-15 04:10:00,57.0,51.9,30.17,NE,40,0.0,0.0,83,0.00,CLR,CLR,0.00,WeatherDisplay:10.37,2013-08-15 09:10:00,
2013-08-15 04:40:00,57.9,51.8,30.17,NE,40,0.0,0.0,80,0.00,CLR,CLR,0.00,WeatherDisplay:10.37,2013-08-15 09:40:00,
2013-08-15 05:10:00,57.9,51.8,30.17,NE,40,0.0,0.0,80,0.00,CLR,CLR,0.00,WeatherDisplay:10.37,2013-08-15 10:10:00,
2013-08-15 05:40:00,59.0,51.8,30.18,NE,40,0.0,0.0,77,0.00,CLR,CLR,0.00,WeatherDisplay:10.37,2013-08-15 10:40:00,
2013-08-15 06:10:00,59.0,51.8,30.18,NE,40,0.0,0.0,77,0.00,CLR,CLR,0.00,WeatherDisplay:10.37,2013-08-15 11:10:00,
2013-08-15 06:40:00,57.9,51.8,30.18,South,190,3.0,3.0,80,0.00,CLR,CLR,0.00,WeatherDisplay:10.37,2013-08-15 11:40:00,
2013-08-15 07:10:00,57.9,51.8,30.18,South,190,3.0,3.0,80,0.00,CLR,CLR,0.00,WeatherDisplay:10.37,2013-08-15 12:10:00,
2013-08-15 07:40:00,59.0,51.8,30.18,South,190,0.0,0.0,77,0.00,CLR,CLR,0.00,WeatherDisplay:10.37,2013-08-15 12:40:00,
2013-08-15 08:10:00,59.0,51.8,30.18,South,190,0.0,0.0,77,0.00,CLR,CLR,0.00,WeatherDisplay:10.37,2013-08-15 13:10:00,
2013-08-15 08:40:00,60.1,53.9,30.19,South,190,3.0,3.0,80,0.00,CLR,CLR,0.00,WeatherDisplay:10.37,2013-08-15 13:40:00,
2013-08-15 09:10:00,60.1,53.9,30.19,South,190,3.0,3.0,80,0.00,CLR,CLR,0.00,WeatherDisplay:10.37,2013-08-15 14:10:00,
2013-08-15 09:40:00,62.1,52.9,30.20,SSW,210,3.0,3.0,72,0.00,CLR,CLR,0.00,WeatherDisplay:10.37,2013-08-15 14:40:00,
2013-08-15 10:10:00,62.1,52.9,30.20,SSW,210,3.0,3.0,72,0.00,CLR,CLR,0.00,WeatherDisplay:10.37,2013-08-15 15:10:00,
2013-08-15 10:40:00,64.9,52.9,30.20,SW,220,5.0,5.0,65,0.00,CLR,CLR,0.00,WeatherDisplay:10.37,2013-08-15 15:40:00,
2013-08-15 11:10:00,64.9,52.9,30.20,SW,220,5.0,5.0,65,0.00,CLR,CLR,0.00,WeatherDisplay:10.37,2013-08-15 16:10:00,
2013-08-15 11:40:00,68.0,52.7,30.20,SSE,160,3.0,3.0,58,0.00,SCT,SCT,0.00,WeatherDisplay:10.37,2013-08-15 16:40:00,
2013-08-15 12:10:00,68.0,52.7,30.20,SSE,160,3.0,3.0,58,0.00,SCT,SCT,0.00,WeatherDisplay:10.37,2013-08-15 17:10:00,
2013-08-15 12:40:00,72.0,52.8,30.18,SSE,160,3.0,3.0,51,0.00,FEW,FEW,0.00,WeatherDisplay:10.37,2013-08-15 17:40:00,
2013-08-15 13:10:00,72.0,52.8,30.18,SSE,160,3.0,3.0,51,0.00,FEW,FEW,0.00,WeatherDisplay:10.37,2013-08-15 18:10:00,
2013-08-15 13:40:00,72.0,50.6,30.17,SSE,160,0.0,0.0,47,0.00,BKN,BKN,0.00,WeatherDisplay:10.37,2013-08-15 18:40:00,
2013-08-15 14:10:00,72.0,50.6,30.17,SSE,160,0.0,0.0,47,0.00,BKN,BKN,0.00,WeatherDisplay:10.37,2013-08-15 19:10:00,
2013-08-15 14:40:00,73.0,49.8,30.15,SSE,160,0.0,0.0,44,0.00,OVC,OVC,0.00,WeatherDisplay:10.37,2013-08-15 19:40:00,
2013-08-15 15:40:00,73.0,47.9,30.14,East,100,6.0,6.0,41,0.00,BKN,BKN,0.00,WeatherDisplay:10.37,2013-08-15 20:40:00,
2013-08-15 16:10:00,73.0,47.9,30.14,East,100,6.0,6.0,41,0.00,BKN,BKN,0.00,WeatherDisplay:10.37,2013-08-15 21:10:00,
2013-08-15 17:10:00,75.0,48.4,30.12,East,100,6.0,6.0,39,0.00,FEW,FEW,0.00,WeatherDisplay:10.37,2013-08-15 22:10:00,
2013-08-15 17:40:00,73.9,48.7,30.12,East,100,6.0,6.0,41,0.00,FEW,FEW,0.00,WeatherDisplay:10.37,2013-08-15 22:40:00,
2013-08-15 18:10:00,73.9,48.7,30.12,East,100,6.0,6.0,41,0.00,FEW,FEW,0.00,WeatherDisplay:10.37,2013-08-15 23:10:00,
2013-08-15 18:40:00,73.0,47.9,30.12,East,100,0.0,0.0,41,0.00,BKN,BKN,0.00,WeatherDisplay:10.37,2013-08-15 23:40:00,
2013-08-15 19:10:00,73.0,47.9,30.12,East,100,0.0,0.0,41,0.00,BKN,BKN,0.00,WeatherDisplay:10.37,2013-08-16 00:10:00,
2013-08-15 19:40:00,71.1,52.5,30.11,East,100,0.0,0.0,52,0.00,CLR,CLR,0.00,WeatherDisplay:10.37,2013-08-16 00:40:00,
2013-08-15 20:10:00,71.1,52.5,30.11,East,100,0.0,0.0,52,0.00,CLR,CLR,0.00,WeatherDisplay:10.37,2013-08-16 01:10:00,
2013-08-15 20:40:00,68.0,52.7,30.12,East,100,0.0,0.0,58,0.00,CLR,CLR,0.00,WeatherDisplay:10.37,2013-08-16 01:40:00,
2013-08-15 21:10:00,68.0,52.7,30.12,East,100,0.0,0.0,58,0.00,CLR,CLR,0.00,WeatherDisplay:10.37,2013-08-16 02:10:00,
2013-08-15 21:40:00,64.9,54.9,30.13,East,100,0.0,0.0,70,0.00,CLR,CLR,0.00,WeatherDisplay:10.37,2013-08-16 02:40:00,
2013-08-15 22:10:00,64.9,54.9,30.13,East,100,0.0,0.0,70,0.00,CLR,CLR,0.00,WeatherDisplay:10.37,2013-08-16 03:10:00,
2013-08-15 22:40:00,64.9,55.7,30.14,East,100,0.0,0.0,72,0.00,CLR,CLR,0.00,WeatherDisplay:10.37,2013-08-16 03:40:00,
2013-08-15 23:10:00,64.9,55.7,30.14,East,100,0.0,0.0,72,0.00,CLR,CLR,0.00,WeatherDisplay:10.37,2013-08-16 04:10:00,
2013-08-15 23:40:00,63.0,54.9,30.16,East,100,0.0,0.0,75,0.00,BKN,BKN,0.00,WeatherDisplay:10.37,2013-08-16 04:40:00,